Time;durP1;ratioP1;P1;durP2;ratioP2;P2;SDS_P1;SDS_P2;PMS_P1;PMS_P2;Temp;Humidity;BMP_temperature;BMP_pressure;BME280_temperature;BME280_humidity;BME280_pressure;Samples;Min_cycle;Max_cycle;Signal;HPM_P1;HPM_P2
2023/05/21 00:00:07;;;;;;;14.33;10.80;;;13.50;99.90;;;;;;5023975;28;20467;-82
2023/05/21 00:02:34;;;;;;;12.17;9.90;;;13.50;99.90;;;;;;5023230;28;20501;-82
2023/05/21 00:05:01;;;;;;;11.50;9.10;;;13.50;99.90;;;;;;5023951;28;20460;-83
2023/05/21 00:07:30;;;;;;;12.37;9.60;;;13.50;99.90;;;;;;5021942;28;20552;-82
2023/05/21 00:09:57;;;;;;;10.10;8.83;;;13.50;99.90;;;;;;5022458;28;20464;-81
2023/05/21 00:12:24;;;;;;;11.80;9.00;;;13.60;99.90;;;;;;5020822;28;20480;-83
2023/05/21 00:14:51;;;;;;;12.47;9.33;;;13.60;99.90;;;;;;5021412;28;20491;-81
2023/05/21 00:17:17;;;;;;;11.27;9.10;;;13.60;99.90;;;;;;5021618;28;20463;-82
2023/05/21 00:19:45;;;;;;;12.40;9.53;;;13.60;99.90;;;;;;5023147;28;20462;-83
2023/05/21 00:22:13;;;;;;;11.70;9.20;;;13.60;99.90;;;;;;5023509;28;20492;-81
2023/05/21 00:24:41;;;;;;;11.77;8.97;;;13.60;99.90;;;;;;5024040;28;20449;-83
2023/05/21 00:27:08;;;;;;;10.80;8.93;;;13.60;99.90;;;;;;5022798;28;20482;-83
2023/05/21 00:29:34;;;;;;;12.00;8.87;;;13.60;99.90;;;;;;5022813;28;20903;-83
2023/05/21 00:32:01;;;;;;;12.80;8.93;;;13.60;99.90;;;;;;5022197;28;20537;-80
2023/05/21 00:34:28;;;;;;;10.10;8.13;;;13.60;99.90;;;;;;5021890;28;20539;-83
2023/05/21 00:36:56;;;;;;;9.23;7.43;;;13.60;99.90;;;;;;5023660;28;20548;-81
2023/05/21 00:39:23;;;;;;;10.37;8.10;;;13.60;99.90;;;;;;5020785;28;21019;-82
2023/05/21 00:41:51;;;;;;;9.70;8.10;;;13.60;99.90;;;;;;5020633;28;20482;-82
2023/05/21 00:44:19;;;;;;;12.03;8.57;;;13.60;99.90;;;;;;5021368;28;20468;-82
2023/05/21 00:46:47;;;;;;;10.33;7.90;;;13.50;99.90;;;;;;5024036;28;20452;-82
2023/05/21 00:49:15;;;;;;;10.27;7.87;;;13.50;99.90;;;;;;5024208;28;20486;-81
2023/05/21 00:51:44;;;;;;;10.87;7.50;;;13.50;99.90;;;;;;5023475;28;20499;-83
2023/05/21 00:54:10;;;;;;;9.33;7.70;;;13.50;99.90;;;;;;5023639;28;20476;-82
2023/05/21 00:56:38;;;;;;;11.13;8.00;;;13.50;99.90;;;;;;5033355;28;20464;-80
2023/05/21 00:59:06;;;;;;;10.27;8.50;;;13.50;99.90;;;;;;5035654;28;20456;-81
2023/05/21 01:01:35;;;;;;;9.70;6.83;;;13.50;99.90;;;;;;5032205;28;20493;-83
2023/05/21 01:04:02;;;;;;;11.17;7.57;;;13.50;99.90;;;;;;5019981;28;20493;-81
2023/05/21 01:06:33;;;;;;;10.30;6.83;;;13.40;99.90;;;;;;5022216;28;20451;-83
2023/05/21 01:09:01;;;;;;;8.60;7.70;;;13.40;99.90;;;;;;5021528;28;20959;-81
2023/05/21 01:11:38;;;;;;;8.30;7.17;;;13.40;99.90;;;;;;5021586;28;20484;-82
2023/05/21 01:14:08;;;;;;;9.60;8.03;;;13.40;99.90;;;;;;5019994;28;20878;-81
2023/05/21 01:16:37;;;;;;;10.10;7.70;;;13.40;99.90;;;;;;5022037;28;20456;-83
2023/05/21 01:19:06;;;;;;;12.73;7.80;;;13.40;99.90;;;;;;5020692;28;20453;-83
2023/05/21 01:21:36;;;;;;;7.60;6.10;;;13.40;99.90;;;;;;5021392;28;20477;-82
2023/05/21 01:24:06;;;;;;;9.30;7.17;;;13.40;99.90;;;;;;5021098;28;20487;-81
2023/05/21 01:26:37;;;;;;;12.10;7.27;;;13.40;99.90;;;;;;5022740;28;20561;-82
2023/05/21 01:29:05;;;;;;;8.77;7.20;;;13.30;99.90;;;;;;5021444;28;20458;-81
2023/05/21 01:31:40;;;;;;;11.53;7.03;;;13.30;99.90;;;;;;5020163;28;21051;-84
2023/05/21 01:34:10;;;;;;;7.60;6.13;;;13.30;99.90;;;;;;5020741;28;20451;-83
2023/05/21 01:36:41;;;;;;;9.20;7.60;;;13.30;99.90;;;;;;5022765;28;20447;-82
2023/05/21 01:39:15;;;;;;;8.30;6.97;;;13.30;99.90;;;;;;5022446;28;20877;-82
2023/05/21 01:41:45;;;;;;;8.07;6.83;;;13.30;99.90;;;;;;5021449;28;20480;-82
2023/05/21 01:44:13;;;;;;;9.33;6.70;;;13.30;99.90;;;;;;5021489;28;20483;-82
2023/05/21 01:46:40;;;;;;;9.77;6.50;;;13.30;99.90;;;;;;5021773;28;20460;-81
2023/05/21 01:49:08;;;;;;;9.00;7.07;;;13.30;99.90;;;;;;5022877;28;20899;-81
2023/05/21 01:51:36;;;;;;;7.93;6.30;;;13.30;99.90;;;;;;5021868;28;20924;-81
2023/05/21 01:54:03;;;;;;;9.27;6.70;;;13.30;99.90;;;;;;5022837;28;20469;-81
2023/05/21 01:56:32;;;;;;;8.50;6.60;;;13.30;99.90;;;;;;5022688;28;20433;-81
2023/05/21 01:59:00;;;;;;;9.00;7.47;;;13.30;99.90;;;;;;5022619;28;20480;-81
2023/05/21 02:01:28;;;;;;;7.87;6.30;;;13.30;99.90;;;;;;5022889;28;20547;-80
2023/05/21 02:03:56;;;;;;;7.97;5.80;;;13.30;99.90;;;;;;5022695;28;20556;-81
2023/05/21 02:06:23;;;;;;;7.70;5.80;;;13.40;99.90;;;;;;5023353;28;20903;-83
2023/05/21 02:08:50;;;;;;;7.50;6.70;;;13.40;99.90;;;;;;5023650;28;20462;-80
2023/05/21 02:11:17;;;;;;;7.00;6.10;;;13.40;99.90;;;;;;5024268;28;20517;-81
2023/05/21 02:13:45;;;;;;;10.70;6.17;;;13.40;99.90;;;;;;5023429;28;20839;-82
2023/05/21 02:16:13;;;;;;;8.40;5.60;;;13.40;99.90;;;;;;5023356;28;20554;-83
2023/05/21 02:18:42;;;;;;;7.63;5.80;;;13.40;99.90;;;;;;5023919;28;20458;-81
2023/05/21 02:21:09;;;;;;;9.80;6.57;;;13.40;99.90;;;;;;5004018;28;20577;-83
2023/05/21 02:23:36;;;;;;;8.20;6.60;;;13.40;99.90;;;;;;5003282;28;20506;-81
2023/05/21 02:26:03;;;;;;;6.83;5.83;;;13.40;99.90;;;;;;5004689;28;21006;-80
2023/05/21 02:28:31;;;;;;;8.20;5.97;;;13.40;99.90;;;;;;5003188;28;20455;-81
2023/05/21 02:31:00;;;;;;;8.03;5.60;;;13.40;99.90;;;;;;5002539;28;20505;-82
2023/05/21 02:33:26;;;;;;;7.20;5.50;;;13.40;99.90;;;;;;5001321;28;20449;-81
2023/05/21 02:35:53;;;;;;;6.03;5.10;;;13.40;99.90;;;;;;5008929;28;20552;-81
2023/05/21 02:38:21;;;;;;;6.13;5.53;;;13.40;99.90;;;;;;5022706;28;20454;-80
2023/05/21 02:40:48;;;;;;;9.50;5.73;;;13.40;99.90;;;;;;5022141;28;20868;-81
2023/05/21 02:43:15;;;;;;;7.80;5.63;;;13.40;99.90;;;;;;5022301;28;20510;-81
2023/05/21 02:45:42;;;;;;;6.27;5.17;;;13.40;99.90;;;;;;5022927;28;20459;-81
2023/05/21 02:48:11;;;;;;;6.17;5.33;;;13.30;99.90;;;;;;5023206;28;20467;-81
2023/05/21 02:50:38;;;;;;;7.87;5.93;;;13.30;99.90;;;;;;5022606;28;20453;-81
2023/05/21 02:53:05;;;;;;;8.10;5.80;;;13.30;99.90;;;;;;5022404;28;20464;-81
2023/05/21 02:55:31;;;;;;;7.53;5.80;;;13.30;99.90;;;;;;5022616;28;20456;-81
2023/05/21 02:57:58;;;;;;;7.67;6.87;;;13.30;99.90;;;;;;5022125;28;20455;-82
2023/05/21 03:00:25;;;;;;;7.50;6.57;;;13.30;99.90;;;;;;5023220;28;20453;-81
2023/05/21 03:02:52;;;;;;;12.30;6.30;;;13.30;99.90;;;;;;5024231;28;20491;-81
2023/05/21 03:05:20;;;;;;;6.53;5.80;;;13.30;99.90;;;;;;5026834;28;20454;-81
2023/05/21 03:07:47;;;;;;;5.97;5.37;;;13.30;99.90;;;;;;5025640;28;20504;-82
2023/05/21 03:10:14;;;;;;;7.93;6.60;;;13.30;99.90;;;;;;5024831;28;20455;-82
2023/05/21 03:12:41;;;;;;;8.80;5.70;;;13.20;99.90;;;;;;5025627;28;20484;-82
2023/05/21 03:15:09;;;;;;;6.20;5.60;;;13.20;99.90;;;;;;5025320;28;20523;-81
2023/05/21 03:17:36;;;;;;;7.60;6.20;;;13.20;99.90;;;;;;5026549;28;20463;-82
2023/05/21 03:20:04;;;;;;;6.90;5.60;;;13.20;99.90;;;;;;5025861;28;20548;-82
2023/05/21 03:22:32;;;;;;;7.23;6.00;;;13.20;99.90;;;;;;5026725;28;20467;-83
2023/05/21 03:25:00;;;;;;;7.10;6.40;;;13.20;99.90;;;;;;5026094;28;20453;-83
2023/05/21 03:27:27;;;;;;;6.80;5.90;;;13.20;99.90;;;;;;5026904;28;20552;-83
2023/05/21 03:29:54;;;;;;;7.20;5.37;;;13.20;99.90;;;;;;5026634;28;20450;-81
2023/05/21 03:32:21;;;;;;;7.00;6.10;;;13.20;99.90;;;;;;5026671;28;20470;-81
2023/05/21 03:34:48;;;;;;;7.50;5.93;;;13.20;99.90;;;;;;5026854;28;20512;-82
2023/05/21 03:37:15;;;;;;;7.70;6.90;;;13.20;99.90;;;;;;5026971;28;20496;-81
2023/05/21 03:39:43;;;;;;;7.33;5.77;;;13.20;99.90;;;;;;5027010;28;20489;-83
2023/05/21 03:42:10;;;;;;;7.40;6.40;;;13.20;99.90;;;;;;5026380;28;20482;-83
2023/05/21 03:44:36;;;;;;;7.47;6.00;;;13.30;99.90;;;;;;5027047;28;20537;-83
2023/05/21 03:47:03;;;;;;;7.93;6.47;;;13.30;99.90;;;;;;5027845;28;20899;-81
2023/05/21 03:49:30;;;;;;;6.90;5.60;;;13.30;99.90;;;;;;5027706;28;20466;-83
2023/05/21 03:51:57;;;;;;;7.60;5.90;;;13.30;99.90;;;;;;5028662;28;20551;-81
2023/05/21 03:54:24;;;;;;;7.60;5.60;;;13.40;99.90;;;;;;5028410;28;20520;-81
2023/05/21 03:56:52;;;;;;;7.80;6.43;;;13.40;99.90;;;;;;5028651;28;20525;-81
2023/05/21 03:59:18;;;;;;;8.33;6.53;;;13.40;99.90;;;;;;5028857;28;20917;-81
2023/05/21 04:01:45;;;;;;;7.10;5.90;;;13.40;99.90;;;;;;5029256;28;20576;-81
2023/05/21 04:04:12;;;;;;;8.80;6.43;;;13.40;99.90;;;;;;5020086;28;20484;-81
2023/05/21 04:06:41;;;;;;;7.70;5.60;;;13.40;99.90;;;;;;5017945;28;20471;-82
2023/05/21 04:09:07;;;;;;;9.30;6.20;;;13.40;99.90;;;;;;5018188;28;20547;-81
2023/05/21 04:11:34;;;;;;;8.20;6.20;;;13.50;99.90;;;;;;5018829;28;20482;-80
2023/05/21 04:14:02;;;;;;;10.33;5.73;;;13.50;99.90;;;;;;5016707;28;20455;-80
2023/05/21 04:16:29;;;;;;;7.33;5.67;;;13.60;99.90;;;;;;5022333;28;21043;-79
2023/05/21 04:18:56;;;;;;;9.43;6.70;;;13.60;99.90;;;;;;5024703;28;20834;-81
2023/05/21 04:21:23;;;;;;;7.30;6.20;;;13.60;99.90;;;;;;5019626;28;20783;-82
2023/05/21 04:23:49;;;;;;;9.30;7.23;;;13.70;99.90;;;;;;5018972;28;20498;-81
2023/05/21 04:26:16;;;;;;;8.27;6.00;;;13.70;99.90;;;;;;5019694;28;20473;-82
2023/05/21 04:28:44;;;;;;;9.00;6.50;;;13.70;99.90;;;;;;5021976;28;20770;-80
2023/05/21 04:31:12;;;;;;;8.23;6.00;;;13.70;94.00;;;;;;5028032;28;20480;-80
2023/05/21 04:33:40;;;;;;;6.83;5.93;;;13.80;92.30;;;;;;5027772;28;20455;-79
2023/05/21 04:36:09;;;;;;;9.10;6.47;;;13.80;57.20;;;;;;5021758;28;20461;-81
2023/05/21 04:38:36;;;;;;;8.27;7.00;;;13.80;51.90;;;;;;5018215;28;20515;-81
2023/05/21 04:41:03;;;;;;;7.20;6.10;;;13.90;47.90;;;;;;5018219;28;20514;-82
2023/05/21 04:43:30;;;;;;;8.50;7.43;;;13.90;40.80;;;;;;5017826;28;20491;-81
2023/05/21 04:45:57;;;;;;;7.10;5.50;;;14.00;29.50;;;;;;5017982;28;20456;-81
2023/05/21 04:48:26;;;;;;;7.27;6.50;;;14.00;17.70;;;;;;5017225;28;20834;-82
2023/05/21 04:50:53;;;;;;;8.60;6.23;;;14.10;1.00;;;;;;5017627;28;20483;-80
2023/05/21 04:53:20;;;;;;;7.23;6.00;;;14.10;17.40;;;;;;5017852;28;20464;-80
2023/05/21 04:55:47;;;;;;;8.20;6.30;;;14.10;1.00;;;;;;5017959;28;20500;-81
2023/05/21 04:58:16;;;;;;;8.50;6.73;;;14.20;1.00;;;;;;5018102;28;20452;-81
2023/05/21 05:00:44;;;;;;;7.80;5.83;;;14.20;1.00;;;;;;5016784;28;20519;-80
2023/05/21 05:03:11;;;;;;;7.97;6.53;;;14.30;1.00;;;;;;5017132;28;20476;-79
2023/05/21 05:05:39;;;;;;;8.17;6.87;;;14.30;1.00;;;;;;5017681;28;20458;-80
2023/05/21 05:08:07;;;;;;;7.30;6.30;;;14.40;1.00;;;;;;5017217;28;20454;-80
2023/05/21 05:10:34;;;;;;;6.77;6.13;;;14.50;1.00;;;;;;5017754;28;20460;-80
2023/05/21 05:13:01;;;;;;;8.10;7.07;;;14.50;1.00;;;;;;5017617;28;20460;-81
2023/05/21 05:15:28;;;;;;;9.53;6.47;;;14.60;1.00;;;;;;5016389;28;20457;-81
2023/05/21 05:17:55;;;;;;;8.00;6.27;;;14.60;1.00;;;;;;5016849;28;20478;-81
2023/05/21 05:20:22;;;;;;;7.90;6.20;;;14.70;1.00;;;;;;5016485;28;20476;-81
2023/05/21 05:22:50;;;;;;;8.47;7.33;;;14.80;1.00;;;;;;5017358;28;20456;-81
2023/05/21 05:25:17;;;;;;;12.13;6.83;;;14.80;1.00;;;;;;5017559;28;21028;-80
2023/05/21 05:27:44;;;;;;;7.13;5.77;;;14.90;1.00;;;;;;5017408;28;20895;-80
2023/05/21 05:30:11;;;;;;;11.63;6.63;;;15.00;1.00;;;;;;5017068;28;20471;-81
2023/05/21 05:32:38;;;;;;;8.20;7.10;;;15.00;1.00;;;;;;5016585;28;20528;-80
2023/05/21 05:35:06;;;;;;;7.00;5.90;;;15.10;1.00;;;;;;5016991;28;20453;-80
2023/05/21 05:37:33;;;;;;;7.53;6.20;;;15.20;1.00;;;;;;5017143;28;20476;-80
2023/05/21 05:40:01;;;;;;;7.50;6.30;;;15.20;1.00;;;;;;5016876;28;20449;-80
2023/05/21 05:42:28;;;;;;;7.27;6.20;;;15.30;1.00;;;;;;5016371;28;20523;-80
2023/05/21 05:44:55;;;;;;;7.47;6.40;;;15.40;1.00;;;;;;5016949;28;20485;-80
2023/05/21 05:47:22;;;;;;;7.90;6.80;;;15.40;1.00;;;;;;5016393;28;20853;-80
2023/05/21 05:49:50;;;;;;;8.37;6.77;;;15.50;1.00;;;;;;5017147;28;21007;-82
2023/05/21 05:52:16;;;;;;;10.97;7.20;;;15.50;1.00;;;;;;5017409;28;20482;-85
2023/05/21 05:54:43;;;;;;;7.97;6.07;;;15.50;1.00;;;;;;5017252;28;20452;-83
2023/05/21 05:57:11;;;;;;;8.47;6.37;;;15.60;99.90;;;;;;5017153;28;20914;-84
2023/05/21 05:59:38;;;;;;;8.10;6.23;;;15.70;1.00;;;;;;5017538;28;20449;-83
2023/05/21 06:02:05;;;;;;;8.23;6.40;;;15.70;1.00;;;;;;5016922;28;21132;-84
2023/05/21 06:04:32;;;;;;;8.70;6.90;;;15.80;1.00;;;;;;5017309;28;20486;-84
2023/05/21 06:06:59;;;;;;;10.20;7.37;;;15.90;99.90;;;;;;5017236;28;20544;-83
2023/05/21 06:09:26;;;;;;;8.70;7.00;;;16.00;99.90;;;;;;5017376;28;20459;-83
2023/05/21 06:11:53;;;;;;;6.90;6.20;;;16.00;99.90;;;;;;5020093;28;20477;-83
2023/05/21 06:14:21;;;;;;;9.43;6.83;;;16.10;99.90;;;;;;5017537;28;20450;-85
2023/05/21 06:16:48;;;;;;;8.20;6.57;;;16.20;99.90;;;;;;5017343;28;20918;-84
2023/05/21 06:19:15;;;;;;;7.70;6.57;;;16.30;99.90;;;;;;5018078;28;20469;-84
2023/05/21 06:21:42;;;;;;;7.90;6.20;;;16.30;99.90;;;;;;5017749;28;20488;-85
2023/05/21 06:24:08;;;;;;;10.53;7.90;;;16.40;99.90;;;;;;4996993;28;20474;-84
2023/05/21 06:26:35;;;;;;;10.47;6.83;;;16.40;99.90;;;;;;4997861;28;20450;-84
2023/05/21 06:29:02;;;;;;;8.93;7.37;;;16.50;99.90;;;;;;4997930;28;20520;-84
2023/05/21 06:31:31;;;;;;;7.93;6.60;;;16.60;99.90;;;;;;4997605;28;20479;-83
2023/05/21 06:33:58;;;;;;;9.17;6.93;;;16.70;99.90;;;;;;4997476;28;20465;-85
2023/05/21 06:36:28;;;;;;;9.23;6.90;;;16.80;99.90;;;;;;5009325;28;20446;-83
2023/05/21 06:38:55;;;;;;;7.70;6.67;;;16.90;1.00;;;;;;5017631;28;20459;-84
2023/05/21 06:41:22;;;;;;;8.97;8.00;;;16.90;1.00;;;;;;5017538;28;20475;-83
2023/05/21 06:43:49;;;;;;;7.53;6.70;;;16.90;1.00;;;;;;5017655;28;20459;-85
2023/05/21 06:46:16;;;;;;;9.57;7.97;;;17.00;1.00;;;;;;5018077;28;20974;-83
2023/05/21 06:48:44;;;;;;;8.50;7.60;;;17.10;1.00;;;;;;5020527;28;20521;-83
2023/05/21 06:51:11;;;;;;;10.60;7.83;;;17.10;26.30;;;;;;5016964;28;20567;-84
2023/05/21 06:53:38;;;;;;;8.80;7.60;;;17.20;1.00;;;;;;5014025;28;20456;-82
2023/05/21 06:56:05;;;;;;;9.57;8.57;;;17.30;1.00;;;;;;4998291;28;20452;-83
2023/05/21 06:58:32;;;;;;;10.97;8.10;;;17.30;99.90;;;;;;4998168;28;20447;-84
2023/05/21 07:00:59;;;;;;;9.17;8.30;;;17.30;1.00;;;;;;5005220;28;20893;-84
2023/05/21 07:03:26;;;;;;;9.20;8.30;;;17.40;1.00;;;;;;5012440;28;20456;-84
2023/05/21 07:05:54;;;;;;;9.20;8.27;;;17.50;99.90;;;;;;5008429;28;20517;-84
2023/05/21 07:08:21;;;;;;;9.97;8.37;;;17.70;99.90;;;;;;5007609;28;20460;-83
2023/05/21 07:10:49;;;;;;;9.00;8.03;;;17.90;99.90;;;;;;5006426;28;20469;-85
2023/05/21 07:13:16;;;;;;;8.93;7.73;;;18.00;99.90;;;;;;5007397;28;20443;-86
2023/05/21 07:15:43;;;;;;;9.30;7.70;;;18.10;99.90;;;;;;5008466;28;20452;-84
2023/05/21 07:18:10;;;;;;;8.20;7.40;;;18.20;1.00;;;;;;5011373;28;20452;-84
2023/05/21 07:20:37;;;;;;;8.77;7.87;;;18.20;1.00;;;;;;5015283;28;20519;-84
2023/05/21 07:23:05;;;;;;;9.27;7.40;;;18.30;1.00;;;;;;5009867;28;20476;-84
2023/05/21 07:25:32;;;;;;;10.60;8.07;;;18.40;1.00;;;;;;5025101;28;20484;-85
2023/05/21 07:27:59;;;;;;;8.53;7.63;;;18.40;19.60;;;;;;5019951;28;20514;-85
2023/05/21 07:30:26;;;;;;;8.53;7.73;;;18.40;99.90;;;;;;5022013;28;20446;-83
2023/05/21 07:32:53;;;;;;;8.93;8.00;;;18.30;1.00;;;;;;5014014;28;21079;-86
2023/05/21 07:35:20;;;;;;;10.97;8.33;;;18.40;1.00;;;;;;5013035;28;20451;-85
2023/05/21 07:37:47;;;;;;;9.50;8.07;;;18.40;99.90;;;;;;5015757;28;20492;-86
2023/05/21 07:40:15;;;;;;;9.70;8.70;;;18.50;1.00;;;;;;5008547;28;20500;-84
2023/05/21 07:42:42;;;;;;;9.13;8.23;;;18.60;1.00;;;;;;5015046;28;20476;-86
2023/05/21 07:45:10;;;;;;;8.73;7.83;;;18.70;99.90;;;;;;5013159;28;20577;-86
2023/05/21 07:47:36;;;;;;;9.60;8.27;;;18.70;99.90;;;;;;5007575;28;20499;-85
2023/05/21 07:50:04;;;;;;;9.10;7.47;;;18.80;19.80;;;;;;5016544;28;20463;-85
2023/05/21 07:52:30;;;;;;;9.30;8.23;;;18.80;99.90;;;;;;5017273;28;20474;-86
2023/05/21 07:54:57;;;;;;;9.67;8.67;;;18.70;1.00;;;;;;5017616;28;20465;-86
2023/05/21 07:57:26;;;;;;;10.27;8.07;;;18.70;1.00;;;;;;5014859;28;20452;-86
2023/05/21 07:59:53;;;;;;;8.70;7.80;;;18.70;83.40;;;;;;5014397;28;20499;-85
2023/05/21 08:02:20;;;;;;;10.53;8.37;;;18.70;99.90;;;;;;5025304;28;20544;-84
2023/05/21 08:04:47;;;;;;;11.30;10.20;;;18.50;1.00;;;;;;5023087;28;20493;-84
2023/05/21 08:07:15;;;;;;;9.43;8.50;;;18.60;99.90;;;;;;5037871;28;20493;-84
2023/05/21 08:09:42;;;;;;;9.63;8.63;;;18.70;23.90;;;;;;5025599;28;20535;-86
2023/05/21 08:12:09;;;;;;;13.30;8.37;;;18.90;18.20;;;;;;5022418;28;20473;-85
2023/05/21 08:14:37;;;;;;;9.83;8.83;;;19.10;1.00;;;;;;5024520;28;20445;-84
2023/05/21 08:17:04;;;;;;;11.10;10.00;;;19.30;1.00;;;;;;5025679;28;20461;-84
2023/05/21 08:19:31;;;;;;;10.80;9.67;;;19.50;1.00;;;;;;5022998;28;20459;-86
2023/05/21 08:21:58;;;;;;;11.60;9.20;;;19.90;1.00;;;;;;5011275;28;20556;-84
2023/05/21 08:24:26;;;;;;;10.70;8.83;;;20.20;1.00;;;;;;5022881;28;20469;-84
2023/05/21 08:26:53;;;;;;;10.43;8.83;;;20.50;99.90;;;;;;5022131;28;20438;-86
2023/05/21 08:29:20;;;;;;;10.10;9.10;;;20.80;1.00;;;;;;5022553;28;20518;-85
2023/05/21 08:31:48;;;;;;;10.10;9.00;;;21.10;1.00;;;;;;5021540;28;20484;-85
2023/05/21 08:34:15;;;;;;;10.33;9.33;;;21.50;1.00;;;;;;5021884;28;20544;-85
2023/05/21 08:36:44;;;;;;;9.33;8.43;;;21.60;99.90;;;;;;5022123;28;20544;-85
2023/05/21 08:39:12;;;;;;;10.20;9.10;;;21.90;99.90;;;;;;5020781;28;20504;-86
2023/05/21 08:41:40;;;;;;;10.37;9.33;;;21.90;99.90;;;;;;5021101;28;20495;-84
2023/05/21 08:44:11;;;;;;;10.13;9.17;;;21.90;26.70;;;;;;5021120;28;20550;-86
2023/05/21 08:46:41;;;;;;;10.13;9.00;;;22.00;1.00;;;;;;5020812;28;20436;-85
2023/05/21 08:49:12;;;;;;;11.00;9.00;;;22.10;8.50;;;;;;5021481;28;20454;-84
2023/05/21 08:51:40;;;;;;;11.13;9.53;;;22.30;1.00;;;;;;5021276;28;20473;-85
2023/05/21 08:54:07;;;;;;;10.33;8.80;;;22.40;1.00;;;;;;5020469;28;20460;-85
2023/05/21 08:56:35;;;;;;;10.23;8.90;;;22.50;1.00;;;;;;5020779;28;20449;-86
2023/05/21 08:59:02;;;;;;;12.13;9.87;;;22.80;1.00;;;;;;5020670;28;20457;-84
2023/05/21 09:01:30;;;;;;;11.10;10.00;;;23.00;1.00;;;;;;5020146;28;20513;-85
2023/05/21 09:03:57;;;;;;;9.90;8.60;;;23.20;1.00;;;;;;5020328;28;20877;-85
2023/05/21 09:06:27;;;;;;;10.13;9.10;;;23.50;1.00;;;;;;5020733;28;20516;-85
2023/05/21 09:09:00;;;;;;;10.73;9.70;;;23.60;1.00;;;;;;5020526;28;20442;-86
2023/05/21 09:11:27;;;;;;;10.60;9.60;;;23.80;1.00;;;;;;5020827;28;20556;-86
2023/05/21 09:13:55;;;;;;;10.83;9.83;;;24.10;1.00;;;;;;5020331;28;20827;-85
2023/05/21 09:16:21;;;;;;;10.63;9.63;;;24.20;1.00;;;;;;5014281;28;20454;-85
2023/05/21 09:18:49;;;;;;;11.70;10.60;;;24.20;1.00;;;;;;5011620;28;20453;-84
2023/05/21 09:21:27;;;;;;;12.30;10.90;;;24.30;1.00;;;;;;5012075;28;20528;-84
2023/05/21 09:23:55;;;;;;;12.70;11.40;;;24.20;1.00;;;;;;5000276;28;20951;-84
2023/05/21 09:26:22;;;;;;;13.50;10.70;;;24.40;99.90;;;;;;5000590;28;20842;-85
2023/05/21 09:28:49;;;;;;;12.07;10.87;;;25.00;99.90;;;;;;5013403;28;20460;-84
2023/05/21 09:31:16;;;;;;;11.80;10.60;;;25.70;99.90;;;;;;5020506;28;20501;-86
2023/05/21 09:33:47;;;;;;;11.47;10.33;;;26.30;99.90;;;;;;5020400;28;20457;-84
2023/05/21 09:36:14;;;;;;;12.37;11.17;;;26.80;99.90;;;;;;5012116;28;20457;-82
2023/05/21 09:38:42;;;;;;;12.43;10.60;;;26.90;99.90;;;;;;5007856;28;20450;-84
2023/05/21 09:41:09;;;;;;;11.20;10.17;;;27.10;99.90;;;;;;5010360;28;20454;-85
2023/05/21 09:43:36;;;;;;;12.50;11.20;;;27.50;99.90;;;;;;5009535;28;20506;-86
2023/05/21 09:46:03;;;;;;;12.10;10.90;;;27.40;99.90;;;;;;5011419;28;20482;-84
2023/05/21 09:48:35;;;;;;;11.03;10.00;;;27.30;99.90;;;;;;5009412;28;20543;-84
2023/05/21 09:51:12;;;;;;;12.70;11.50;;;27.00;99.90;;;;;;5001450;28;20516;-84
2023/05/21 09:53:54;;;;;;;11.70;10.50;;;26.40;99.90;;;;;;5011910;28;20549;-85
2023/05/21 09:56:23;;;;;;;13.27;11.87;;;26.00;99.90;;;;;;5020345;28;20453;-85
2023/05/21 09:58:53;;;;;;;12.37;11.13;;;25.70;99.90;;;;;;5008352;28;20507;-84
2023/05/21 10:01:21;;;;;;;12.30;11.10;;;25.50;99.90;;;;;;5014485;28;20486;-84
2023/05/21 10:03:53;;;;;;;12.97;11.60;;;25.10;99.90;;;;;;5012966;28;20450;-84
2023/05/21 10:06:21;;;;;;;11.90;10.70;;;25.20;99.90;;;;;;5005466;28;21053;-85
2023/05/21 10:08:51;;;;;;;12.57;10.60;;;25.20;99.90;;;;;;4999607;28;20455;-85
2023/05/21 10:11:23;;;;;;;11.33;10.17;;;25.20;99.90;;;;;;5004076;28;20545;-84
2023/05/21 10:13:57;;;;;;;13.30;10.10;;;25.30;99.90;;;;;;5011832;28;20430;-85
2023/05/21 10:16:24;;;;;;;11.10;10.10;;;25.30;99.90;;;;;;5011611;28;21004;-84
2023/05/21 10:18:53;;;;;;;10.27;9.27;;;25.10;99.90;;;;;;5010966;28;20480;-86
2023/05/21 10:21:22;;;;;;;12.20;10.30;;;25.20;99.90;;;;;;5015256;28;20890;-86
2023/05/21 10:23:49;;;;;;;11.07;9.90;;;25.20;99.90;;;;;;5005949;28;20459;-84
2023/05/21 10:26:18;;;;;;;11.83;10.70;;;25.40;99.90;;;;;;5007850;28;20568;-86
2023/05/21 10:28:45;;;;;;;12.80;11.50;;;25.40;99.90;;;;;;5008187;28;20456;-85
2023/05/21 10:31:13;;;;;;;10.70;9.60;;;25.60;99.90;;;;;;5010059;28;20491;-85
2023/05/21 10:33:42;;;;;;;10.37;9.33;;;25.90;99.90;;;;;;5014873;28;20500;-86
2023/05/21 10:36:09;;;;;;;11.60;10.50;;;26.40;99.90;;;;;;5000346;28;20443;-85
2023/05/21 10:38:38;;;;;;;12.10;10.90;;;27.00;99.90;;;;;;4999584;28;20497;-85
2023/05/21 10:41:07;;;;;;;12.67;11.30;;;27.60;99.90;;;;;;5000184;28;20467;-85
2023/05/21 10:43:56;;;;;;;12.73;11.53;;;28.00;99.90;;;;;;4999917;28;20542;-84
2023/05/21 10:47:03;;;;;;;13.60;12.30;;;27.80;99.90;;;;;;4999290;28;21036;-85
2023/05/21 10:49:54;;;;;;;13.43;11.90;;;27.60;99.90;;;;;;4997446;28;20449;-84
2023/05/21 10:52:35;;;;;;;13.80;12.50;;;27.30;99.90;;;;;;5018452;28;20577;-87
2023/05/21 10:55:17;;;;;;;13.97;11.80;;;27.10;99.90;;;;;;5019385;28;20496;-84
2023/05/21 10:58:16;;;;;;;12.90;11.60;;;26.90;99.90;;;;;;5013449;28;20473;-83
2023/05/21 11:00:45;;;;;;;13.70;12.30;;;26.80;99.90;;;;;;5001958;28;20468;-84
2023/05/21 11:03:13;;;;;;;13.53;12.13;;;26.70;99.90;;;;;;5019809;28;20436;-85
2023/05/21 11:05:41;;;;;;;14.50;13.10;;;26.60;99.90;;;;;;5017927;28;20491;-85
2023/05/21 11:08:22;;;;;;;13.90;12.60;;;26.40;99.90;;;;;;5016579;28;21018;-85
2023/05/21 11:10:52;;;;;;;12.20;11.00;;;26.20;99.90;;;;;;5019566;28;20507;-84
2023/05/21 11:13:20;;;;;;;13.63;12.07;;;26.10;99.90;;;;;;5019851;28;20438;-87
2023/05/21 11:16:13;;;;;;;13.13;11.70;;;26.20;99.90;;;;;;5019606;28;20499;-85
2023/05/21 11:18:59;;;;;;;12.23;11.03;;;26.40;99.90;;;;;;5020642;28;20442;-85
2023/05/21 11:21:34;;;;;;;12.63;11.40;;;26.70;99.90;;;;;;5020699;28;20469;-86
2023/05/21 11:24:09;;;;;;;12.87;11.57;;;27.10;99.90;;;;;;5022652;28;20457;-85
2023/05/21 11:27:05;;;;;;;12.57;11.27;;;27.40;99.90;;;;;;5021622;28;20496;-85
2023/05/21 11:29:39;;;;;;;11.87;10.67;;;27.70;99.90;;;;;;5013741;28;20531;-86
2023/05/21 11:32:09;;;;;;;13.47;11.60;;;28.10;99.90;;;;;;5017261;28;20505;-86
2023/05/21 11:34:44;;;;;;;12.40;11.20;;;28.70;99.90;;;;;;5038703;28;20455;-85
2023/05/21 11:37:40;;;;;;;13.57;12.20;;;29.20;99.90;;;;;;5039045;28;20448;-84
2023/05/21 11:40:22;;;;;;;11.70;10.57;;;29.70;99.90;;;;;;5012174;28;20461;-84
2023/05/21 11:42:51;;;;;;;13.90;12.37;;;30.10;99.90;;;;;;5024403;28;20476;-85
2023/05/21 11:45:19;;;;;;;12.90;11.67;;;30.10;99.90;;;;;;5024069;28;20461;-85
2023/05/21 11:47:48;;;;;;;13.83;12.50;;;29.90;99.90;;;;;;5023414;28;20553;-85
2023/05/21 11:50:16;;;;;;;11.90;10.73;;;29.70;99.90;;;;;;5019312;28;20549;-85
2023/05/21 11:52:44;;;;;;;13.00;11.70;;;29.60;99.90;;;;;;5011963;28;20553;-86
2023/05/21 11:55:11;;;;;;;12.50;11.20;;;29.60;99.90;;;;;;5008969;28;20458;-85
2023/05/21 11:57:41;;;;;;;13.40;12.00;;;29.60;99.90;;;;;;5014685;28;20449;-85
2023/05/21 12:00:15;;;;;;;14.40;12.87;;;29.70;99.90;;;;;;5025193;28;20524;-86
2023/05/21 12:02:54;;;;;;;13.77;12.37;;;29.90;99.90;;;;;;5024503;28;20473;-84
2023/05/21 12:05:22;;;;;;;12.60;11.20;;;30.20;99.90;;;;;;5025308;28;20467;-85
2023/05/21 12:07:49;;;;;;;13.33;12.07;;;30.70;99.90;;;;;;5025603;28;20988;-84
2023/05/21 12:10:16;;;;;;;13.90;12.60;;;31.10;99.90;;;;;;5024690;28;20477;-86
2023/05/21 12:12:44;;;;;;;13.57;12.30;;;31.40;99.90;;;;;;5025941;28;20571;-85
2023/05/21 12:15:12;;;;;;;14.93;13.53;;;31.70;99.90;;;;;;5025576;28;20463;-84
2023/05/21 12:17:40;;;;;;;13.53;12.33;;;31.80;99.90;;;;;;5023717;28;20449;-85
2023/05/21 12:20:15;;;;;;;14.87;13.40;;;31.60;99.90;;;;;;5022633;28;20513;-86
2023/05/21 12:22:43;;;;;;;13.47;12.27;;;31.20;99.90;;;;;;5022175;28;20874;-85
2023/05/21 12:25:10;;;;;;;15.07;13.10;;;30.80;99.90;;;;;;5023170;28;20486;-85
2023/05/21 12:27:38;;;;;;;14.10;12.80;;;30.60;99.90;;;;;;5022020;28;20536;-84
2023/05/21 12:30:07;;;;;;;14.37;13.00;;;31.40;99.90;;;;;;5021331;28;20885;-86
2023/05/21 12:32:33;;;;;;;13.20;12.00;;;32.80;99.90;;;;;;5023104;28;20477;-85
2023/05/21 12:35:01;;;;;;;13.70;12.40;;;33.70;99.90;;;;;;5022885;28;20478;-87
2023/05/21 12:37:31;;;;;;;11.70;10.60;;;35.10;99.90;;;;;;5024100;28;20449;-86
2023/05/21 12:39:59;;;;;;;11.27;10.27;;;37.00;99.90;;;;;;5024269;28;20500;-86
2023/05/21 12:42:26;;;;;;;12.60;11.30;;;38.70;99.90;;;;;;5024822;28;20477;-85
2023/05/21 12:44:54;;;;;;;11.30;10.30;;;39.70;99.90;;;;;;5024787;28;21021;-87
2023/05/21 12:47:24;;;;;;;12.13;11.13;;;40.20;99.90;;;;;;5025922;28;20478;-84